createdAt,value
2023-01-04T00:00:26.411Z,96212.06
2023-01-04T00:03:37.018Z,96214.13
2023-01-04T00:06:46.179Z,96203.56
2023-01-04T00:09:56.889Z,96196.25
2023-01-04T00:13:06.449Z,96201.41
2023-01-04T00:16:19.999Z,96206.16
2023-01-04T00:19:30.404Z,96201.41
2023-01-04T00:22:39.125Z,96195.28
2023-01-04T00:25:48.589Z,96190.56
2023-01-04T00:28:57.812Z,96188.47
2023-01-04T00:32:07.630Z,96185.56
2023-01-04T00:35:39.984Z,96180.44
2023-01-04T00:38:44.584Z,96181.25
2023-01-04T00:42:05.092Z,96182.25
2023-01-04T00:45:14.092Z,96179.31
2023-01-04T00:48:22.810Z,96171.97
2023-01-04T00:51:33.002Z,96173.34
2023-01-04T00:54:41.218Z,96177.91
2023-01-04T00:57:50.907Z,96176.09
2023-01-04T01:01:06.212Z,96175.13
2023-01-04T01:04:17.987Z,96177.19
2023-01-04T01:07:26.267Z,96176.72
2023-01-04T01:10:36.299Z,96159.38
2023-01-04T01:13:46.239Z,96165.69
2023-01-04T01:16:58.501Z,96156.50
2023-01-04T01:20:09.661Z,96164.22
2023-01-04T01:23:18.094Z,96167.84
2023-01-04T01:26:27.270Z,96168.06
2023-01-04T01:29:36.873Z,96170.78
2023-01-04T01:32:45.014Z,96173.28
2023-01-04T01:35:53.503Z,96160.81
2023-01-04T01:39:01.884Z,96178.75
2023-01-04T01:42:20.952Z,96182.94
2023-01-04T01:45:35.790Z,96182.19
2023-01-04T01:48:43.995Z,96185.84
2023-01-04T01:51:54.518Z,96187.31
2023-01-04T01:55:09.050Z,96187.44
2023-01-04T01:58:27.280Z,96179.63
2023-01-04T02:01:37.446Z,96176.19
2023-01-04T02:04:51.803Z,96173.88
2023-01-04T02:08:03.526Z,96177.97
2023-01-04T02:11:13.024Z,96181.63
2023-01-04T02:14:29.005Z,96176.09
2023-01-04T02:17:49.804Z,96170.75
2023-01-04T02:21:03.038Z,96164.50
2023-01-04T02:24:57.215Z,96159.91
2023-01-04T02:28:17.977Z,96148.72
2023-01-04T02:31:40.875Z,96154.91
2023-01-04T02:35:04.793Z,96154.00
2023-01-04T02:38:24.695Z,96157.16
2023-01-04T02:41:39.953Z,96151.16
2023-01-04T02:44:54.189Z,96145.78
2023-01-04T02:48:24.359Z,96154.06
2023-01-04T02:51:35.365Z,96154.06
2023-01-04T02:54:48.212Z,96146.63
2023-01-04T02:58:06.433Z,96145.06
2023-01-04T03:01:47.116Z,96143.44
2023-01-04T03:05:27.037Z,96156.03
2023-01-04T03:08:42.147Z,96142.19
2023-01-04T03:12:14.907Z,96138.69
2023-01-04T03:15:28.803Z,96136.31
2023-01-04T03:18:45.603Z,96143.34
2023-01-04T03:21:55.232Z,96133.31
2023-01-04T03:25:23.068Z,96136.00
2023-01-04T03:28:53.025Z,96124.03
2023-01-04T03:32:27.171Z,96123.31
2023-01-04T03:35:46.700Z,96119.50
2023-01-04T03:39:25.527Z,96125.84
2023-01-04T03:43:15.957Z,96119.88
2023-01-04T03:46:52.411Z,96125.00
2023-01-04T03:50:08.409Z,96111.03
2023-01-04T03:53:17.132Z,96108.41
2023-01-04T03:56:30.669Z,96109.22
2023-01-04T03:59:50.915Z,96103.75
2023-01-04T04:03:07.181Z,96117.59
2023-01-04T04:06:33.322Z,96113.69
2023-01-04T04:09:41.516Z,96115.09
2023-01-04T04:12:52.453Z,96118.28
2023-01-04T04:16:00.612Z,96121.13
2023-01-04T04:19:09.328Z,96117.81
2023-01-04T04:22:18.525Z,96119.00
2023-01-04T04:25:26.816Z,96119.19
2023-01-04T04:28:36.448Z,96106.50
2023-01-04T04:31:44.727Z,96111.28
2023-01-04T04:34:52.978Z,96119.00
2023-01-04T04:38:01.170Z,96114.94
2023-01-04T04:41:29.129Z,96104.91
2023-01-04T04:44:38.922Z,96103.84
2023-01-04T04:47:48.135Z,96096.84
2023-01-04T04:50:57.776Z,96099.66
2023-01-04T04:54:07.122Z,96097.13
2023-01-04T04:57:15.303Z,96091.63
2023-01-04T05:00:25.050Z,96083.06
2023-01-04T05:03:33.635Z,96091.31
2023-01-04T05:06:41.825Z,96096.94
2023-01-04T05:09:49.951Z,96090.44
2023-01-04T05:13:00.811Z,96086.06
2023-01-04T05:16:11.731Z,96088.31
2023-01-04T05:19:20.206Z,96089.44
2023-01-04T05:22:28.380Z,96079.53
2023-01-04T05:25:36.826Z,96086.91
2023-01-04T05:28:51.490Z,96078.81
2023-01-04T05:32:02.582Z,96069.63
2023-01-04T05:35:12.478Z,96069.88
2023-01-04T05:38:22.442Z,96069.66
2023-01-04T05:41:48.741Z,96077.88
2023-01-04T05:44:59.239Z,96078.94
2023-01-04T05:48:09.135Z,96082.88
2023-01-04T05:51:17.686Z,96080.84
2023-01-04T05:54:25.818Z,96080.59
2023-01-04T05:57:34.347Z,96080.47
2023-01-04T06:00:42.448Z,96074.91
2023-01-04T06:03:52.015Z,96083.84
2023-01-04T06:07:00.464Z,96086.34
2023-01-04T06:10:11.563Z,96078.47
2023-01-04T06:13:20.997Z,96076.44
2023-01-04T06:16:33.752Z,96074.63
2023-01-04T06:19:44.830Z,96083.31
2023-01-04T06:22:53.128Z,96087.50
2023-01-04T06:26:01.299Z,96088.81
2023-01-04T06:29:10.640Z,96096.59
2023-01-04T06:32:19.968Z,96087.91
2023-01-04T06:35:30.058Z,96092.16
2023-01-04T06:38:38.469Z,96087.69
2023-01-04T06:41:47.121Z,96098.03
2023-01-04T06:44:55.634Z,96098.88
2023-01-04T06:48:08.877Z,96085.28
2023-01-04T06:51:20.270Z,96092.47
2023-01-04T06:54:29.932Z,96085.19
2023-01-04T06:57:38.724Z,96078.00
2023-01-04T07:00:48.610Z,96076.78
2023-01-04T07:03:57.599Z,96075.13
2023-01-04T07:07:08.815Z,96077.00
2023-01-04T07:10:17.246Z,96088.81
2023-01-04T07:13:26.929Z,96076.81
2023-01-04T07:16:35.321Z,96076.22
2023-01-04T07:19:44.025Z,96079.09
2023-01-04T07:22:54.746Z,96078.09
2023-01-04T07:26:05.633Z,96079.44
2023-01-04T07:29:16.765Z,96078.84
2023-01-04T07:32:25.165Z,96075.63
2023-01-04T07:35:33.718Z,96077.69
2023-01-04T07:38:44.265Z,96083.97
2023-01-04T07:41:53.421Z,96077.47
2023-01-04T07:45:04.319Z,96075.97
2023-01-04T07:48:12.828Z,96077.25
2023-01-04T07:51:21.335Z,96069.38
2023-01-04T07:54:31.392Z,96080.59
2023-01-04T07:57:39.934Z,96074.28
2023-01-04T08:00:48.167Z,96081.53
2023-01-04T08:03:56.430Z,96069.31
2023-01-04T08:07:06.464Z,96056.78
2023-01-04T08:10:16.127Z,96068.06
2023-01-04T08:13:24.415Z,96065.19
2023-01-04T08:16:35.670Z,96063.03
2023-01-04T08:19:46.704Z,96045.66
2023-01-04T08:22:55.172Z,96044.75
2023-01-04T08:26:07.394Z,96041.81
2023-01-04T08:29:16.322Z,96031.16
2023-01-04T08:32:24.714Z,96028.19
2023-01-04T08:35:33.133Z,96025.44
2023-01-04T08:38:59.279Z,96049.00
2023-01-04T08:42:20.746Z,96050.50
2023-01-04T08:45:33.237Z,96047.59
2023-01-04T08:48:42.737Z,96039.31
2023-01-04T08:51:51.259Z,96035.16
2023-01-04T08:54:59.776Z,96028.81
2023-01-04T08:58:09.641Z,96032.47
2023-01-04T09:01:18.204Z,96022.19
2023-01-04T09:04:26.950Z,96023.03
2023-01-04T09:07:35.921Z,96024.69
2023-01-04T09:10:44.778Z,96028.56
2023-01-04T09:14:06.908Z,96030.75
2023-01-04T09:17:16.982Z,96024.78
2023-01-04T09:20:25.594Z,96032.88
2023-01-04T09:23:34.887Z,96018.25
2023-01-04T09:26:43.220Z,96021.41
2023-01-04T09:29:53.497Z,96020.28
2023-01-04T09:33:02.603Z,96016.94
2023-01-04T09:36:16.391Z,96005.88
2023-01-04T09:39:26.330Z,96010.00
2023-01-04T09:42:40.572Z,96003.53
2023-01-04T09:45:58.890Z,96007.09
2023-01-04T09:49:19.709Z,96002.22
2023-01-04T09:52:53.020Z,95994.88
2023-01-04T09:56:11.230Z,95995.75
2023-01-04T09:59:29.270Z,95983.34
2023-01-04T10:02:46.454Z,95998.53
2023-01-04T10:05:57.372Z,95995.94
2023-01-04T10:09:13.482Z,95988.22
2023-01-04T10:12:48.693Z,95980.88
2023-01-04T10:16:09.135Z,95981.25
2023-01-04T10:23:19.027Z,95966.31
2023-01-04T10:26:39.442Z,95965.19
2023-01-04T10:30:09.605Z,95953.63
2023-01-04T10:33:26.364Z,95957.09
2023-01-04T10:36:37.686Z,95949.19
2023-01-04T10:39:47.527Z,95942.94
2023-01-04T10:43:08.100Z,95926.97
2023-01-04T10:46:26.814Z,95940.25
2023-01-04T10:49:44.628Z,95917.44
2023-01-04T10:53:03.093Z,95920.56
2023-01-04T10:56:27.404Z,95918.75
2023-01-04T10:59:45.207Z,95898.81
2023-01-04T11:03:08.746Z,95896.34
2023-01-04T11:06:23.454Z,95900.16
2023-01-04T11:09:43.533Z,95897.34
2023-01-04T11:12:55.192Z,95894.63
2023-01-04T11:16:07.615Z,95898.56
2023-01-04T11:19:16.325Z,95895.72
2023-01-04T11:22:35.997Z,95894.41
2023-01-04T11:25:56.189Z,95873.00
2023-01-04T11:29:14.264Z,95870.38
2023-01-04T11:32:40.616Z,95868.03
2023-01-04T11:35:53.030Z,95869.72
2023-01-04T11:39:02.825Z,95861.25
2023-01-04T11:42:22.968Z,95859.59
2023-01-04T11:45:34.585Z,95843.38
2023-01-04T11:48:45.840Z,95840.88
2023-01-04T11:51:54.209Z,95837.75
2023-01-04T11:55:25.360Z,95830.94
2023-01-04T11:58:35.005Z,95831.50
2023-01-04T12:01:46.471Z,95836.81
2023-01-04T12:04:55.550Z,95837.44
2023-01-04T12:08:05.630Z,95826.81
2023-01-04T12:11:25.604Z,95820.53
2023-01-04T12:14:38.772Z,95814.88
2023-01-04T12:17:54.778Z,95813.88
2023-01-04T12:21:04.827Z,95803.91
2023-01-04T12:24:22.444Z,95795.94
2023-01-04T12:27:31.194Z,95795.63
2023-01-04T12:30:46.209Z,95788.28
2023-01-04T12:33:57.387Z,95782.00
2023-01-04T12:37:07.029Z,95788.78
2023-01-04T12:40:53.910Z,95783.16
2023-01-04T12:44:02.886Z,95781.00
2023-01-04T12:47:59.401Z,95774.69
2023-01-04T12:51:33.291Z,95757.25
2023-01-04T12:54:49.330Z,95756.75
2023-01-04T12:57:58.379Z,95753.41
2023-01-04T13:01:27.469Z,95749.78
2023-01-04T13:04:42.825Z,95741.13
2023-01-04T13:07:55.484Z,95737.41
2023-01-04T13:11:17.296Z,95737.25
2023-01-04T13:14:37.534Z,95734.41
2023-01-04T13:17:45.905Z,95747.16
2023-01-04T13:20:57.077Z,95748.16
2023-01-04T13:24:20.506Z,95746.06
2023-01-04T13:27:29.303Z,95738.28
2023-01-04T13:30:42.425Z,95733.44
2023-01-04T13:33:51.497Z,95728.22
2023-01-04T13:37:14.666Z,95721.25
2023-01-04T13:40:28.478Z,95734.88
2023-01-04T13:43:59.436Z,95718.25
2023-01-04T13:47:10.631Z,95731.00
2023-01-04T13:50:32.324Z,95718.31
2023-01-04T13:53:43.184Z,95718.50
2023-01-04T13:56:55.867Z,95716.22
2023-01-04T14:00:08.257Z,95709.13
2023-01-04T14:03:33.207Z,95717.97
2023-01-04T14:06:45.583Z,95725.63
2023-01-04T14:10:01.322Z,95719.03
2023-01-04T14:13:10.717Z,95713.00
2023-01-04T14:16:19.113Z,95706.38
2023-01-04T14:19:45.617Z,95715.31
2023-01-04T14:22:56.236Z,95714.66
2023-01-04T14:26:06.204Z,95697.72
2023-01-04T14:29:24.077Z,95687.72
2023-01-04T14:32:32.349Z,95697.34
2023-01-04T14:35:46.443Z,95700.38
2023-01-04T14:39:11.062Z,95706.84
2023-01-04T14:42:32.147Z,95701.41
2023-01-04T14:45:41.260Z,95709.50
2023-01-04T14:48:53.837Z,95714.31
2023-01-04T14:52:04.505Z,95716.31
2023-01-04T14:55:15.921Z,95701.13
2023-01-04T14:58:25.774Z,95699.25
2023-01-04T15:01:36.331Z,95688.78
2023-01-04T15:04:44.928Z,95681.16
2023-01-04T15:07:54.436Z,95668.69
2023-01-04T15:11:03.489Z,95678.31
2023-01-04T15:14:13.612Z,95678.38
2023-01-04T15:17:21.818Z,95667.19
2023-01-04T15:20:30.602Z,95668.56
2023-01-04T15:23:39.772Z,95662.88
2023-01-04T15:26:49.178Z,95667.03
2023-01-04T15:29:58.890Z,95663.88
2023-01-04T15:33:07.209Z,95644.44
2023-01-04T15:36:23.722Z,95657.41
2023-01-04T15:39:32.355Z,95655.47
2023-01-04T15:42:58.208Z,95659.00
2023-01-04T15:46:09.677Z,95665.03
2023-01-04T15:49:18.349Z,95664.91
2023-01-04T15:52:26.848Z,95680.88
2023-01-04T15:55:37.614Z,95673.06
2023-01-04T15:58:46.133Z,95651.03
2023-01-04T16:01:59.570Z,95658.13
2023-01-04T16:05:09.457Z,95646.59
2023-01-04T16:08:18.072Z,95660.13
2023-01-04T16:11:26.730Z,95645.59
2023-01-04T16:14:35.260Z,95640.28
2023-01-04T16:17:47.013Z,95634.09
2023-01-04T16:20:55.256Z,95635.56
2023-01-04T16:24:12.999Z,95635.31
2023-01-04T16:27:35.433Z,95635.38
2023-01-04T16:30:43.825Z,95640.06
2023-01-04T16:33:55.025Z,95645.88
2023-01-04T16:37:03.476Z,95644.00
2023-01-04T16:40:13.623Z,95648.13
2023-01-04T16:43:21.902Z,95650.25
2023-01-04T16:46:32.248Z,95647.53
2023-01-04T16:50:04.020Z,95642.50
2023-01-04T16:53:23.052Z,95644.34
2023-01-04T16:56:32.707Z,95643.22
2023-01-04T16:59:41.701Z,95635.06
2023-01-04T17:02:55.533Z,95622.03
2023-01-04T17:06:10.206Z,95620.38
2023-01-04T17:09:22.246Z,95624.50
2023-01-04T17:12:48.217Z,95634.31
2023-01-04T17:16:00.703Z,95630.53
2023-01-04T17:19:09.238Z,95638.03
2023-01-04T17:22:18.932Z,95640.88
2023-01-04T17:25:27.405Z,95625.72
2023-01-04T17:28:37.511Z,95641.44
2023-01-04T17:31:46.706Z,95631.59
2023-01-04T17:34:54.937Z,95631.13
2023-01-04T17:38:05.229Z,95634.50
2023-01-04T17:41:16.496Z,95637.78
2023-01-04T17:44:24.662Z,95612.88
2023-01-04T17:47:32.761Z,95622.16
2023-01-04T17:50:40.920Z,95608.84
2023-01-04T17:53:57.581Z,95608.97
2023-01-04T17:57:06.340Z,95574.84
2023-01-04T18:00:15.969Z,95594.13
2023-01-04T18:03:24.277Z,95599.16
2023-01-04T18:06:36.138Z,95588.28
2023-01-04T18:09:45.710Z,95610.31
2023-01-04T18:12:53.898Z,95597.94
2023-01-04T18:16:23.091Z,95608.78
2023-01-04T18:19:32.085Z,95599.81
2023-01-04T18:22:40.422Z,95593.66
2023-01-04T18:25:50.161Z,95601.22
2023-01-04T18:28:59.610Z,95588.59
2023-01-04T18:32:08.069Z,95589.75
2023-01-04T18:35:16.586Z,95596.25
2023-01-04T18:38:24.919Z,95599.75
2023-01-04T18:41:34.708Z,95594.25
2023-01-04T18:44:47.755Z,95593.31
2023-01-04T18:47:56.975Z,95593.66
2023-01-04T18:51:07.977Z,95578.97
2023-01-04T18:54:20.823Z,95584.63
2023-01-04T18:57:31.724Z,95584.09
2023-01-04T19:00:40.671Z,95582.53
2023-01-04T19:03:51.275Z,95585.56
2023-01-04T19:07:03.231Z,95580.78
2023-01-04T19:10:12.735Z,95584.56
2023-01-04T19:13:25.963Z,95597.25
2023-01-04T19:16:34.959Z,95594.41
2023-01-04T19:19:53.328Z,95584.50
2023-01-04T19:23:03.017Z,95592.56
2023-01-04T19:26:12.105Z,95575.16
2023-01-04T19:29:22.395Z,95581.13
2023-01-04T19:32:33.684Z,95563.94
2023-01-04T19:35:44.257Z,95556.72
2023-01-04T19:38:53.275Z,95562.19
2023-01-04T19:42:02.355Z,95556.31
2023-01-04T19:45:12.743Z,95548.38
2023-01-04T19:48:23.416Z,95541.50
2023-01-04T19:51:31.680Z,95537.44
2023-01-04T19:54:40.522Z,95532.13
2023-01-04T19:57:48.839Z,95526.94
2023-01-04T20:00:58.675Z,95519.03
2023-01-04T20:04:07.280Z,95525.19
2023-01-04T20:07:15.710Z,95520.13
2023-01-04T20:10:24.152Z,95515.47
2023-01-04T20:13:34.272Z,95507.19
2023-01-04T20:16:44.207Z,95509.97
2023-01-04T20:19:52.864Z,95513.25
2023-01-04T20:23:01.147Z,95511.81
2023-01-04T20:26:16.067Z,95513.63
2023-01-04T20:29:24.431Z,95496.47
2023-01-04T20:32:36.415Z,95505.59
2023-01-04T20:35:46.376Z,95508.25
2023-01-04T20:38:55.038Z,95494.94
2023-01-04T20:42:21.089Z,95503.16
2023-01-04T20:45:29.477Z,95500.44
2023-01-04T20:48:39.338Z,95501.16
2023-01-04T20:51:47.669Z,95511.16
2023-01-04T20:54:56.051Z,95501.97
2023-01-04T20:58:05.369Z,95501.22
2023-01-04T21:01:14.759Z,95512.69
2023-01-04T21:04:24.655Z,95519.94
2023-01-04T21:07:35.586Z,95510.22
2023-01-04T21:10:45.432Z,95506.38
2023-01-04T21:13:54.029Z,95508.09
2023-01-04T21:17:02.634Z,95502.34
2023-01-04T21:20:13.100Z,95496.16
2023-01-04T21:23:24.959Z,95502.06
2023-01-04T21:26:33.058Z,95484.03
2023-01-04T21:29:41.324Z,95500.03
2023-01-04T21:32:49.448Z,95497.13
2023-01-04T21:35:58.984Z,95493.53
2023-01-04T21:39:07.087Z,95490.75
2023-01-04T21:42:15.349Z,95495.94
2023-01-04T21:45:24.091Z,95488.34
2023-01-04T21:48:32.265Z,95494.31
2023-01-04T21:51:42.224Z,95493.88
2023-01-04T21:54:50.450Z,95482.50
2023-01-04T21:57:58.606Z,95491.53
2023-01-04T22:01:10.954Z,95479.22
2023-01-04T22:04:19.449Z,95484.91
2023-01-04T22:07:29.248Z,95483.31
2023-01-04T22:10:37.373Z,95483.13
2023-01-04T22:13:46.261Z,95466.91
2023-01-04T22:16:54.392Z,95482.38
2023-01-04T22:20:02.605Z,95490.44
2023-01-04T22:23:12.902Z,95489.56
2023-01-04T22:26:21.115Z,95502.44
2023-01-04T22:29:29.828Z,95502.19
2023-01-04T22:32:38.017Z,95494.59
2023-01-04T22:35:46.145Z,95494.06
2023-01-04T22:38:57.469Z,95491.75
2023-01-04T22:42:05.886Z,95498.94
2023-01-04T22:45:13.991Z,95515.59
2023-01-04T22:48:22.077Z,95503.16
2023-01-04T22:51:31.789Z,95517.69
2023-01-04T22:54:41.288Z,95519.78
2023-01-04T22:57:50.139Z,95523.63
2023-01-04T23:00:58.201Z,95525.91
2023-01-04T23:04:06.716Z,95524.13
2023-01-04T23:07:15.050Z,95522.56
2023-01-04T23:10:25.521Z,95524.22
2023-01-04T23:13:33.729Z,95516.06
2023-01-04T23:16:42.163Z,95496.63
2023-01-04T23:19:50.560Z,95493.22
2023-01-04T23:22:58.918Z,95510.03
2023-01-04T23:26:13.689Z,95512.59
2023-01-04T23:29:22.046Z,95505.53
2023-01-04T23:32:31.978Z,95503.44
2023-01-04T23:35:40.548Z,95500.41
2023-01-04T23:38:53.224Z,95495.13
2023-01-04T23:42:02.855Z,95484.53
2023-01-04T23:45:12.115Z,95469.66
2023-01-04T23:48:20.416Z,95473.81
2023-01-04T23:51:28.717Z,95457.28
2023-01-04T23:54:37.293Z,95454.16
2023-01-04T23:57:46.949Z,95447.00
